TFFR/PTP METAR and TAF weather

Enter ICAO airport designator
Station Type Date Time Source
TFFR METAR 2019/08/23 15:30 UTC NOAA

TFFR 231530Z AUTO 12011KT 090V160 9999 BKN033 BKN040 BKN049 32/23 Q1017 TEMPO 4000 SHRA BKN020TCU


Station Type Date Time Source
TFFR Decoded METAR 2019/08/23 15:30 UTC NOAA

Station name not available
Aug 23, 2019 - 11:30 AM EDT / 2019.08.23 1530 UTC
Wind: from the ESE (120 degrees) at 13 MPH (11 KT) (direction variable):0
Visibility: greater than 7 mile(s):0
Sky conditions: mostly cloudy
Weather: Towering cumulus clouds observed
Temperature: 89 F (32 C)
Heat index: 96.8 F (36.0 C):1
Dew Point: 73 F (23 C)
Relative Humidity: 59%
Pressure (altimeter): 30.03 in. Hg (1017 hPa)
ob: TFFR 231530Z AUTO 12011KT 090V160 9999 BKN033 BKN040 BKN049 32/23 Q1017 TEMPO 4000 SHRA BKN020TCU
cycle: 15

Station Type Date Time Source
TFFR TAF 2019/08/23 12:53 UTC NOAA

TAF TFFR 231100Z 2312/2412 12012KT 9999 SCT025 PROB40
TEMPO 2312/2321 4000 SHRA BKN020TCU
TEMPO 2406/2412 3000 SHRA FEW018CB BKN020TCU PROB30
TEMPO 2408/2412 VRB15G25KT 1200 TSRA SCT012CB BKN020TCU

Example: see airport list